sensor_id;sensor_type;location;lat;lon;timestamp;temperature;humidity
21037;DHT22;10677;50.942;4.028;2024-03-17T00:02:25;10.20;85.10
21037;DHT22;10677;50.942;4.028;2024-03-17T00:04:51;10.20;79.50
21037;DHT22;10677;50.942;4.028;2024-03-17T00:07:16;10.20;85.30
21037;DHT22;10677;50.942;4.028;2024-03-17T00:09:42;10.10;91.10
21037;DHT22;10677;50.942;4.028;2024-03-17T00:12:08;10.00;95.50
21037;DHT22;10677;50.942;4.028;2024-03-17T00:14:35;9.90;96.50
21037;DHT22;10677;50.942;4.028;2024-03-17T00:17:01;9.90;98.40
21037;DHT22;10677;50.942;4.028;2024-03-17T00:19:27;9.90;97.10
21037;DHT22;10677;50.942;4.028;2024-03-17T00:21:53;9.80;99.90
21037;DHT22;10677;50.942;4.028;2024-03-17T00:24:19;9.80;99.90
21037;DHT22;10677;50.942;4.028;2024-03-17T00:26:51;9.80;99.90
21037;DHT22;10677;50.942;4.028;2024-03-17T00:29:17;9.80;99.90
21037;DHT22;10677;50.942;4.028;2024-03-17T00:31:43;9.80;99.90
21037;DHT22;10677;50.942;4.028;2024-03-17T00:34:10;9.70;99.90
21037;DHT22;10677;50.942;4.028;2024-03-17T00:36:36;9.70;99.90
21037;DHT22;10677;50.942;4.028;2024-03-17T00:39:02;9.70;99.90
21037;DHT22;10677;50.942;4.028;2024-03-17T00:41:28;9.80;99.90
21037;DHT22;10677;50.942;4.028;2024-03-17T00:43:54;9.80;99.90
21037;DHT22;10677;50.942;4.028;2024-03-17T00:46:22;9.80;99.90
21037;DHT22;10677;50.942;4.028;2024-03-17T00:48:48;9.80;99.90
21037;DHT22;10677;50.942;4.028;2024-03-17T00:51:14;9.90;99.90
21037;DHT22;10677;50.942;4.028;2024-03-17T00:53:40;9.90;99.90
21037;DHT22;10677;50.942;4.028;2024-03-17T00:56:06;9.90;99.90
21037;DHT22;10677;50.942;4.028;2024-03-17T00:58:32;10.00;99.90
21037;DHT22;10677;50.942;4.028;2024-03-17T01:00:57;10.00;99.90
21037;DHT22;10677;50.942;4.028;2024-03-17T01:03:23;10.20;95.30
21037;DHT22;10677;50.942;4.028;2024-03-17T01:05:50;10.20;92.30
21037;DHT22;10677;50.942;4.028;2024-03-17T01:08:19;10.30;91.70
21037;DHT22;10677;50.942;4.028;2024-03-17T01:10:46;10.30;94.00
21037;DHT22;10677;50.942;4.028;2024-03-17T01:13:17;10.40;93.50
21037;DHT22;10677;50.942;4.028;2024-03-17T01:15:44;10.30;92.60
21037;DHT22;10677;50.942;4.028;2024-03-17T01:18:10;10.40;91.70
21037;DHT22;10677;50.942;4.028;2024-03-17T01:20:37;10.30;93.40
21037;DHT22;10677;50.942;4.028;2024-03-17T01:23:04;10.30;92.90
21037;DHT22;10677;50.942;4.028;2024-03-17T01:25:33;10.40;92.40
21037;DHT22;10677;50.942;4.028;2024-03-17T01:28:01;10.30;93.00
21037;DHT22;10677;50.942;4.028;2024-03-17T01:30:27;10.30;93.00
21037;DHT22;10677;50.942;4.028;2024-03-17T01:32:52;10.30;92.90
21037;DHT22;10677;50.942;4.028;2024-03-17T01:35:18;10.30;93.10
21037;DHT22;10677;50.942;4.028;2024-03-17T01:37:44;10.30;93.60
21037;DHT22;10677;50.942;4.028;2024-03-17T01:40:10;10.20;95.50
21037;DHT22;10677;50.942;4.028;2024-03-17T01:42:40;10.20;96.80
21037;DHT22;10677;50.942;4.028;2024-03-17T01:45:28;10.10;99.90
21037;DHT22;10677;50.942;4.028;2024-03-17T01:47:55;10.10;99.90
21037;DHT22;10677;50.942;4.028;2024-03-17T01:50:23;10.20;99.90
21037;DHT22;10677;50.942;4.028;2024-03-17T01:52:52;10.20;99.80
21037;DHT22;10677;50.942;4.028;2024-03-17T01:55:18;10.20;98.80
21037;DHT22;10677;50.942;4.028;2024-03-17T01:57:44;10.20;99.70
21037;DHT22;10677;50.942;4.028;2024-03-17T02:00:10;10.20;99.90
21037;DHT22;10677;50.942;4.028;2024-03-17T02:02:37;10.20;99.90
21037;DHT22;10677;50.942;4.028;2024-03-17T02:05:03;10.20;99.90
21037;DHT22;10677;50.942;4.028;2024-03-17T02:07:29;10.10;99.90
21037;DHT22;10677;50.942;4.028;2024-03-17T02:09:56;10.00;99.90
21037;DHT22;10677;50.942;4.028;2024-03-17T02:12:23;10.00;99.90
21037;DHT22;10677;50.942;4.028;2024-03-17T02:14:49;9.90;99.90
21037;DHT22;10677;50.942;4.028;2024-03-17T02:17:14;10.00;99.90
21037;DHT22;10677;50.942;4.028;2024-03-17T02:19:40;10.00;99.90
21037;DHT22;10677;50.942;4.028;2024-03-17T02:22:15;10.00;99.90
21037;DHT22;10677;50.942;4.028;2024-03-17T02:24:42;10.00;99.90
21037;DHT22;10677;50.942;4.028;2024-03-17T02:27:08;10.10;99.90
21037;DHT22;10677;50.942;4.028;2024-03-17T02:29:34;10.00;99.90
21037;DHT22;10677;50.942;4.028;2024-03-17T02:32:02;10.00;99.90
21037;DHT22;10677;50.942;4.028;2024-03-17T02:34:36;10.00;99.90
21037;DHT22;10677;50.942;4.028;2024-03-17T02:37:02;10.00;99.90
21037;DHT22;10677;50.942;4.028;2024-03-17T02:39:29;10.00;99.90
21037;DHT22;10677;50.942;4.028;2024-03-17T02:42:05;10.00;99.90
21037;DHT22;10677;50.942;4.028;2024-03-17T02:44:32;10.00;99.90
21037;DHT22;10677;50.942;4.028;2024-03-17T02:46:58;9.90;99.90
21037;DHT22;10677;50.942;4.028;2024-03-17T02:49:28;9.80;99.90
21037;DHT22;10677;50.942;4.028;2024-03-17T02:52:05;9.90;99.90
21037;DHT22;10677;50.942;4.028;2024-03-17T02:54:31;9.90;99.90
21037;DHT22;10677;50.942;4.028;2024-03-17T02:56:58;9.90;99.90
21037;DHT22;10677;50.942;4.028;2024-03-17T02:59:23;9.90;99.90
21037;DHT22;10677;50.942;4.028;2024-03-17T03:01:49;9.90;99.90
21037;DHT22;10677;50.942;4.028;2024-03-17T03:04:14;9.80;99.90
21037;DHT22;10677;50.942;4.028;2024-03-17T03:06:41;9.80;99.90
21037;DHT22;10677;50.942;4.028;2024-03-17T03:09:06;9.80;99.90
21037;DHT22;10677;50.942;4.028;2024-03-17T03:11:38;9.80;99.90
21037;DHT22;10677;50.942;4.028;2024-03-17T03:14:05;9.80;99.90
21037;DHT22;10677;50.942;4.028;2024-03-17T03:16:30;9.80;99.90
21037;DHT22;10677;50.942;4.028;2024-03-17T03:18:56;9.70;99.90
21037;DHT22;10677;50.942;4.028;2024-03-17T03:21:21;9.60;99.90
21037;DHT22;10677;50.942;4.028;2024-03-17T03:23:47;9.60;99.90
21037;DHT22;10677;50.942;4.028;2024-03-17T03:26:13;9.60;99.90
21037;DHT22;10677;50.942;4.028;2024-03-17T03:28:39;9.60;99.90
21037;DHT22;10677;50.942;4.028;2024-03-17T03:31:04;9.50;99.90
21037;DHT22;10677;50.942;4.028;2024-03-17T03:33:30;9.60;99.90
21037;DHT22;10677;50.942;4.028;2024-03-17T03:35:56;9.60;99.90
21037;DHT22;10677;50.942;4.028;2024-03-17T03:38:22;9.60;99.90
21037;DHT22;10677;50.942;4.028;2024-03-17T03:40:48;9.60;99.90
21037;DHT22;10677;50.942;4.028;2024-03-17T03:43:15;9.50;99.90
21037;DHT22;10677;50.942;4.028;2024-03-17T03:45:41;9.40;99.90
21037;DHT22;10677;50.942;4.028;2024-03-17T03:48:07;9.40;99.90
21037;DHT22;10677;50.942;4.028;2024-03-17T03:50:37;9.30;99.90
21037;DHT22;10677;50.942;4.028;2024-03-17T03:53:03;9.30;99.90
21037;DHT22;10677;50.942;4.028;2024-03-17T03:55:30;9.40;99.90
21037;DHT22;10677;50.942;4.028;2024-03-17T03:57:56;9.50;99.90
21037;DHT22;10677;50.942;4.028;2024-03-17T04:00:22;9.50;99.90
21037;DHT22;10677;50.942;4.028;2024-03-17T04:02:50;9.40;99.90
21037;DHT22;10677;50.942;4.028;2024-03-17T04:05:16;9.40;99.90
21037;DHT22;10677;50.942;4.028;2024-03-17T04:07:42;9.40;99.90
21037;DHT22;10677;50.942;4.028;2024-03-17T04:10:09;9.40;99.90
21037;DHT22;10677;50.942;4.028;2024-03-17T04:12:35;9.40;99.90
21037;DHT22;10677;50.942;4.028;2024-03-17T04:15:01;9.50;99.90
21037;DHT22;10677;50.942;4.028;2024-03-17T04:17:26;9.50;99.90
21037;DHT22;10677;50.942;4.028;2024-03-17T04:19:55;9.50;99.90
21037;DHT22;10677;50.942;4.028;2024-03-17T04:22:21;9.50;99.90
21037;DHT22;10677;50.942;4.028;2024-03-17T04:24:48;9.50;99.90
21037;DHT22;10677;50.942;4.028;2024-03-17T04:27:19;9.50;99.90
21037;DHT22;10677;50.942;4.028;2024-03-17T04:29:49;9.60;99.90
21037;DHT22;10677;50.942;4.028;2024-03-17T04:32:15;9.60;99.90
21037;DHT22;10677;50.942;4.028;2024-03-17T04:34:41;9.50;99.90
21037;DHT22;10677;50.942;4.028;2024-03-17T04:37:11;9.60;99.90
21037;DHT22;10677;50.942;4.028;2024-03-17T04:39:41;9.60;99.90
21037;DHT22;10677;50.942;4.028;2024-03-17T04:42:11;9.60;99.90
21037;DHT22;10677;50.942;4.028;2024-03-17T04:44:36;9.60;99.90
21037;DHT22;10677;50.942;4.028;2024-03-17T04:47:03;9.50;99.90
21037;DHT22;10677;50.942;4.028;2024-03-17T04:49:36;9.50;99.90
21037;DHT22;10677;50.942;4.028;2024-03-17T04:52:02;9.50;99.90
21037;DHT22;10677;50.942;4.028;2024-03-17T04:54:28;9.60;99.90
21037;DHT22;10677;50.942;4.028;2024-03-17T04:56:53;9.80;99.90
21037;DHT22;10677;50.942;4.028;2024-03-17T04:59:19;9.60;99.90
21037;DHT22;10677;50.942;4.028;2024-03-17T05:01:45;9.60;99.90
21037;DHT22;10677;50.942;4.028;2024-03-17T05:04:11;9.50;99.90
21037;DHT22;10677;50.942;4.028;2024-03-17T05:06:37;9.50;99.90
21037;DHT22;10677;50.942;4.028;2024-03-17T05:09:02;9.50;99.90
21037;DHT22;10677;50.942;4.028;2024-03-17T05:11:30;9.50;99.90
21037;DHT22;10677;50.942;4.028;2024-03-17T05:13:56;9.50;99.90
21037;DHT22;10677;50.942;4.028;2024-03-17T05:16:22;9.50;99.90
21037;DHT22;10677;50.942;4.028;2024-03-17T05:18:49;9.40;99.90
21037;DHT22;10677;50.942;4.028;2024-03-17T05:21:15;9.50;99.90
21037;DHT22;10677;50.942;4.028;2024-03-17T05:23:40;9.50;99.90
21037;DHT22;10677;50.942;4.028;2024-03-17T05:26:06;9.50;99.90
21037;DHT22;10677;50.942;4.028;2024-03-17T05:28:33;9.50;99.90
21037;DHT22;10677;50.942;4.028;2024-03-17T05:30:59;9.40;99.90
21037;DHT22;10677;50.942;4.028;2024-03-17T05:33:25;9.50;99.90
21037;DHT22;10677;50.942;4.028;2024-03-17T05:35:53;9.50;99.90
21037;DHT22;10677;50.942;4.028;2024-03-17T05:38:20;9.40;99.90
21037;DHT22;10677;50.942;4.028;2024-03-17T05:40:57;9.30;99.90
21037;DHT22;10677;50.942;4.028;2024-03-17T05:43:23;9.30;99.90
21037;DHT22;10677;50.942;4.028;2024-03-17T05:45:52;9.40;99.90
21037;DHT22;10677;50.942;4.028;2024-03-17T05:48:19;9.30;99.90
21037;DHT22;10677;50.942;4.028;2024-03-17T05:50:45;9.30;99.90
21037;DHT22;10677;50.942;4.028;2024-03-17T05:53:10;9.30;99.90
21037;DHT22;10677;50.942;4.028;2024-03-17T05:55:36;9.40;99.90
21037;DHT22;10677;50.942;4.028;2024-03-17T05:58:02;9.40;99.90
21037;DHT22;10677;50.942;4.028;2024-03-17T06:00:28;9.40;99.90
21037;DHT22;10677;50.942;4.028;2024-03-17T06:02:54;9.40;99.90
21037;DHT22;10677;50.942;4.028;2024-03-17T06:05:20;9.50;99.90
21037;DHT22;10677;50.942;4.028;2024-03-17T06:07:46;9.50;99.90
21037;DHT22;10677;50.942;4.028;2024-03-17T06:10:12;9.60;99.90
21037;DHT22;10677;50.942;4.028;2024-03-17T06:12:38;9.70;99.90
21037;DHT22;10677;50.942;4.028;2024-03-17T06:15:04;9.70;99.90
21037;DHT22;10677;50.942;4.028;2024-03-17T06:17:29;9.70;99.90
21037;DHT22;10677;50.942;4.028;2024-03-17T06:19:55;9.80;99.90
21037;DHT22;10677;50.942;4.028;2024-03-17T06:22:23;9.80;99.90
21037;DHT22;10677;50.942;4.028;2024-03-17T06:24:49;9.80;99.90
21037;DHT22;10677;50.942;4.028;2024-03-17T06:27:15;9.80;99.90
21037;DHT22;10677;50.942;4.028;2024-03-17T06:29:41;9.90;99.90
21037;DHT22;10677;50.942;4.028;2024-03-17T06:32:08;9.90;99.90
21037;DHT22;10677;50.942;4.028;2024-03-17T06:34:34;9.90;99.90
21037;DHT22;10677;50.942;4.028;2024-03-17T06:36:59;10.00;99.90
21037;DHT22;10677;50.942;4.028;2024-03-17T06:39:25;10.10;99.90
21037;DHT22;10677;50.942;4.028;2024-03-17T06:41:51;10.00;99.90
21037;DHT22;10677;50.942;4.028;2024-03-17T06:44:17;10.00;99.90
21037;DHT22;10677;50.942;4.028;2024-03-17T06:46:42;10.00;99.90
21037;DHT22;10677;50.942;4.028;2024-03-17T06:49:09;10.00;99.90
21037;DHT22;10677;50.942;4.028;2024-03-17T06:51:35;10.00;99.90
21037;DHT22;10677;50.942;4.028;2024-03-17T06:54:01;10.00;99.90
21037;DHT22;10677;50.942;4.028;2024-03-17T06:56:26;10.00;99.90
21037;DHT22;10677;50.942;4.028;2024-03-17T06:58:52;10.00;99.90
21037;DHT22;10677;50.942;4.028;2024-03-17T07:01:18;10.10;99.90
21037;DHT22;10677;50.942;4.028;2024-03-17T07:03:44;10.20;99.90
21037;DHT22;10677;50.942;4.028;2024-03-17T07:06:10;10.30;99.90
21037;DHT22;10677;50.942;4.028;2024-03-17T07:08:36;10.40;99.90
21037;DHT22;10677;50.942;4.028;2024-03-17T07:11:05;10.40;99.90
21037;DHT22;10677;50.942;4.028;2024-03-17T07:13:36;10.40;99.90
21037;DHT22;10677;50.942;4.028;2024-03-17T07:16:03;10.50;99.90
21037;DHT22;10677;50.942;4.028;2024-03-17T07:18:32;10.50;99.90
21037;DHT22;10677;50.942;4.028;2024-03-17T07:20:58;10.60;99.90
21037;DHT22;10677;50.942;4.028;2024-03-17T07:23:25;10.60;99.90
21037;DHT22;10677;50.942;4.028;2024-03-17T07:25:55;10.80;99.90
21037;DHT22;10677;50.942;4.028;2024-03-17T07:28:21;10.80;99.90
21037;DHT22;10677;50.942;4.028;2024-03-17T07:30:51;11.00;99.90
21037;DHT22;10677;50.942;4.028;2024-03-17T07:33:17;11.10;99.90
21037;DHT22;10677;50.942;4.028;2024-03-17T07:35:54;11.10;99.90
21037;DHT22;10677;50.942;4.028;2024-03-17T07:38:25;11.20;99.90
21037;DHT22;10677;50.942;4.028;2024-03-17T07:41:05;11.40;99.90
21037;DHT22;10677;50.942;4.028;2024-03-17T07:43:33;11.40;99.90
21037;DHT22;10677;50.942;4.028;2024-03-17T07:46:00;11.40;99.90
21037;DHT22;10677;50.942;4.028;2024-03-17T07:48:26;11.40;99.90
21037;DHT22;10677;50.942;4.028;2024-03-17T07:50:59;11.40;99.90
21037;DHT22;10677;50.942;4.028;2024-03-17T07:53:26;11.60;99.90
21037;DHT22;10677;50.942;4.028;2024-03-17T07:56:05;11.50;99.90
21037;DHT22;10677;50.942;4.028;2024-03-17T07:58:32;11.50;99.90
21037;DHT22;10677;50.942;4.028;2024-03-17T08:01:02;11.60;99.90
21037;DHT22;10677;50.942;4.028;2024-03-17T08:03:29;11.60;99.90
21037;DHT22;10677;50.942;4.028;2024-03-17T08:05:57;11.60;99.90
21037;DHT22;10677;50.942;4.028;2024-03-17T08:08:23;11.60;99.90
21037;DHT22;10677;50.942;4.028;2024-03-17T08:10:49;11.50;99.90
21037;DHT22;10677;50.942;4.028;2024-03-17T08:13:15;11.50;99.90
21037;DHT22;10677;50.942;4.028;2024-03-17T08:15:42;11.50;99.90
21037;DHT22;10677;50.942;4.028;2024-03-17T08:18:14;11.50;99.90
21037;DHT22;10677;50.942;4.028;2024-03-17T08:20:41;11.40;99.90
21037;DHT22;10677;50.942;4.028;2024-03-17T08:23:11;11.40;99.90
21037;DHT22;10677;50.942;4.028;2024-03-17T08:25:37;11.50;99.90
21037;DHT22;10677;50.942;4.028;2024-03-17T08:28:03;11.60;99.90
21037;DHT22;10677;50.942;4.028;2024-03-17T08:30:29;11.60;99.90
21037;DHT22;10677;50.942;4.028;2024-03-17T08:32:58;11.60;99.90
21037;DHT22;10677;50.942;4.028;2024-03-17T08:35:23;11.50;99.90
21037;DHT22;10677;50.942;4.028;2024-03-17T08:37:49;11.60;99.90
21037;DHT22;10677;50.942;4.028;2024-03-17T08:40:17;11.50;99.90
21037;DHT22;10677;50.942;4.028;2024-03-17T08:42:43;11.40;99.90
21037;DHT22;10677;50.942;4.028;2024-03-17T08:45:10;11.50;99.90
21037;DHT22;10677;50.942;4.028;2024-03-17T08:47:36;11.50;99.90
21037;DHT22;10677;50.942;4.028;2024-03-17T08:50:02;11.50;99.90
21037;DHT22;10677;50.942;4.028;2024-03-17T08:52:32;11.50;99.90
21037;DHT22;10677;50.942;4.028;2024-03-17T08:54:58;11.60;99.90
21037;DHT22;10677;50.942;4.028;2024-03-17T08:57:25;11.70;99.90
21037;DHT22;10677;50.942;4.028;2024-03-17T08:59:51;11.70;99.90
21037;DHT22;10677;50.942;4.028;2024-03-17T09:02:18;11.60;99.90
21037;DHT22;10677;50.942;4.028;2024-03-17T09:04:46;11.70;99.90
21037;DHT22;10677;50.942;4.028;2024-03-17T09:07:12;11.70;99.90
21037;DHT22;10677;50.942;4.028;2024-03-17T09:09:43;11.70;99.90
21037;DHT22;10677;50.942;4.028;2024-03-17T09:12:09;11.70;99.90
21037;DHT22;10677;50.942;4.028;2024-03-17T09:14:35;11.80;99.90
21037;DHT22;10677;50.942;4.028;2024-03-17T09:17:01;11.80;99.90
21037;DHT22;10677;50.942;4.028;2024-03-17T09:19:26;11.80;99.90
21037;DHT22;10677;50.942;4.028;2024-03-17T09:21:54;11.80;99.90
21037;DHT22;10677;50.942;4.028;2024-03-17T09:24:20;11.90;99.90
21037;DHT22;10677;50.942;4.028;2024-03-17T09:26:46;11.80;99.90
21037;DHT22;10677;50.942;4.028;2024-03-17T09:29:12;11.80;99.90
21037;DHT22;10677;50.942;4.028;2024-03-17T09:31:38;11.90;99.90
21037;DHT22;10677;50.942;4.028;2024-03-17T09:34:07;11.90;99.90
21037;DHT22;10677;50.942;4.028;2024-03-17T09:36:32;12.00;99.90
21037;DHT22;10677;50.942;4.028;2024-03-17T09:38:58;11.90;99.90
21037;DHT22;10677;50.942;4.028;2024-03-17T09:41:26;12.00;99.90
21037;DHT22;10677;50.942;4.028;2024-03-17T09:43:53;12.10;99.90
21037;DHT22;10677;50.942;4.028;2024-03-17T09:46:19;12.10;99.90
21037;DHT22;10677;50.942;4.028;2024-03-17T09:48:46;12.20;99.90
21037;DHT22;10677;50.942;4.028;2024-03-17T09:51:23;12.30;99.90
21037;DHT22;10677;50.942;4.028;2024-03-17T09:53:49;12.30;99.90
21037;DHT22;10677;50.942;4.028;2024-03-17T09:56:17;12.40;99.90
21037;DHT22;10677;50.942;4.028;2024-03-17T09:58:47;12.60;99.90
21037;DHT22;10677;50.942;4.028;2024-03-17T10:01:14;12.60;99.90
21037;DHT22;10677;50.942;4.028;2024-03-17T10:03:47;12.80;99.90
21037;DHT22;10677;50.942;4.028;2024-03-17T10:06:25;12.90;99.90
21037;DHT22;10677;50.942;4.028;2024-03-17T10:08:57;13.00;99.90
21037;DHT22;10677;50.942;4.028;2024-03-17T10:11:24;12.90;99.90
21037;DHT22;10677;50.942;4.028;2024-03-17T10:14:07;12.90;99.90
21037;DHT22;10677;50.942;4.028;2024-03-17T10:16:34;13.00;99.90
21037;DHT22;10677;50.942;4.028;2024-03-17T10:19:25;13.10;99.90
21037;DHT22;10677;50.942;4.028;2024-03-17T10:22:00;13.00;99.90
21037;DHT22;10677;50.942;4.028;2024-03-17T10:24:27;13.10;99.90
21037;DHT22;10677;50.942;4.028;2024-03-17T10:26:58;13.00;99.90
21037;DHT22;10677;50.942;4.028;2024-03-17T10:31:59;13.10;99.90
21037;DHT22;10677;50.942;4.028;2024-03-17T10:34:28;13.20;99.90
21037;DHT22;10677;50.942;4.028;2024-03-17T10:37:19;13.10;99.90
21037;DHT22;10677;50.942;4.028;2024-03-17T10:39:51;13.00;99.90
21037;DHT22;10677;50.942;4.028;2024-03-17T10:42:29;13.10;99.90
21037;DHT22;10677;50.942;4.028;2024-03-17T10:44:57;13.20;99.90
21037;DHT22;10677;50.942;4.028;2024-03-17T10:47:27;13.10;99.90
21037;DHT22;10677;50.942;4.028;2024-03-17T10:49:54;13.30;99.90
21037;DHT22;10677;50.942;4.028;2024-03-17T10:52:24;13.40;99.90
21037;DHT22;10677;50.942;4.028;2024-03-17T10:54:54;13.70;99.90
21037;DHT22;10677;50.942;4.028;2024-03-17T10:59:59;14.30;99.90
21037;DHT22;10677;50.942;4.028;2024-03-17T11:02:26;14.40;99.90
21037;DHT22;10677;50.942;4.028;2024-03-17T11:05:03;14.30;99.90
21037;DHT22;10677;50.942;4.028;2024-03-17T11:07:30;14.30;99.90
21037;DHT22;10677;50.942;4.028;2024-03-17T11:09:58;14.50;99.90
21037;DHT22;10677;50.942;4.028;2024-03-17T11:17:48;15.30;99.90
21037;DHT22;10677;50.942;4.028;2024-03-17T11:22:43;15.70;99.90
21037;DHT22;10677;50.942;4.028;2024-03-17T11:27:59;15.60;99.90
21037;DHT22;10677;50.942;4.028;2024-03-17T11:39:06;16.10;99.90
21037;DHT22;10677;50.942;4.028;2024-03-17T11:41:51;16.00;99.90
21037;DHT22;10677;50.942;4.028;2024-03-17T11:44:26;16.10;99.90
21037;DHT22;10677;50.942;4.028;2024-03-17T11:46:56;15.90;99.50
21037;DHT22;10677;50.942;4.028;2024-03-17T11:49:37;15.80;99.90
21037;DHT22;10677;50.942;4.028;2024-03-17T11:52:11;15.80;99.90
21037;DHT22;10677;50.942;4.028;2024-03-17T11:54:43;16.00;99.90
21037;DHT22;10677;50.942;4.028;2024-03-17T11:57:10;16.30;99.90
21037;DHT22;10677;50.942;4.028;2024-03-17T11:59:37;16.40;98.80
21037;DHT22;10677;50.942;4.028;2024-03-17T12:02:10;16.40;95.30
21037;DHT22;10677;50.942;4.028;2024-03-17T12:04:42;16.30;99.90
21037;DHT22;10677;50.942;4.028;2024-03-17T12:07:12;16.20;99.90
21037;DHT22;10677;50.942;4.028;2024-03-17T12:09:41;16.50;97.90
21037;DHT22;10677;50.942;4.028;2024-03-17T12:12:27;16.70;94.40
21037;DHT22;10677;50.942;4.028;2024-03-17T12:15:02;16.80;82.60
21037;DHT22;10677;50.942;4.028;2024-03-17T12:17:28;16.70;86.20
21037;DHT22;10677;50.942;4.028;2024-03-17T12:19:54;16.70;74.70
21037;DHT22;10677;50.942;4.028;2024-03-17T12:22:22;16.50;80.00
21037;DHT22;10677;50.942;4.028;2024-03-17T12:24:51;16.50;87.20
21037;DHT22;10677;50.942;4.028;2024-03-17T12:27:24;16.40;83.60
21037;DHT22;10677;50.942;4.028;2024-03-17T12:29:52;16.40;91.80
21037;DHT22;10677;50.942;4.028;2024-03-17T12:32:25;16.40;94.00
21037;DHT22;10677;50.942;4.028;2024-03-17T12:34:55;16.50;93.10
21037;DHT22;10677;50.942;4.028;2024-03-17T12:37:24;16.30;84.70
21037;DHT22;10677;50.942;4.028;2024-03-17T12:39:59;16.40;87.30
21037;DHT22;10677;50.942;4.028;2024-03-17T12:42:26;16.30;83.10
21037;DHT22;10677;50.942;4.028;2024-03-17T12:44:54;16.40;90.30
21037;DHT22;10677;50.942;4.028;2024-03-17T12:47:21;16.50;86.10
21037;DHT22;10677;50.942;4.028;2024-03-17T12:49:51;16.40;91.10
21037;DHT22;10677;50.942;4.028;2024-03-17T12:52:29;16.50;90.90
21037;DHT22;10677;50.942;4.028;2024-03-17T12:55:00;16.50;82.30
21037;DHT22;10677;50.942;4.028;2024-03-17T12:57:46;16.50;85.50
21037;DHT22;10677;50.942;4.028;2024-03-17T13:00:31;16.60;85.50
21037;DHT22;10677;50.942;4.028;2024-03-17T13:02:57;16.70;75.50
21037;DHT22;10677;50.942;4.028;2024-03-17T13:05:23;16.60;71.90
21037;DHT22;10677;50.942;4.028;2024-03-17T13:07:49;16.50;81.50
21037;DHT22;10677;50.942;4.028;2024-03-17T13:10:16;16.50;77.70
21037;DHT22;10677;50.942;4.028;2024-03-17T13:12:42;16.60;86.00
21037;DHT22;10677;50.942;4.028;2024-03-17T13:15:13;16.70;64.20
21037;DHT22;10677;50.942;4.028;2024-03-17T13:17:40;16.80;49.90
21037;DHT22;10677;50.942;4.028;2024-03-17T13:20:08;16.60;51.70
21037;DHT22;10677;50.942;4.028;2024-03-17T13:22:38;16.70;50.50
21037;DHT22;10677;50.942;4.028;2024-03-17T13:25:07;16.80;48.50
21037;DHT22;10677;50.942;4.028;2024-03-17T13:27:34;17.00;53.30
21037;DHT22;10677;50.942;4.028;2024-03-17T13:29:59;17.20;40.10
21037;DHT22;10677;50.942;4.028;2024-03-17T13:32:25;17.10;24.80
21037;DHT22;10677;50.942;4.028;2024-03-17T13:34:52;16.90;34.10
21037;DHT22;10677;50.942;4.028;2024-03-17T13:37:17;16.70;46.80
21037;DHT22;10677;50.942;4.028;2024-03-17T13:39:43;16.90;45.90
21037;DHT22;10677;50.942;4.028;2024-03-17T13:42:08;16.80;42.90
21037;DHT22;10677;50.942;4.028;2024-03-17T13:44:34;16.70;61.60
21037;DHT22;10677;50.942;4.028;2024-03-17T13:47:01;16.60;79.60
21037;DHT22;10677;50.942;4.028;2024-03-17T13:49:27;16.50;96.20
21037;DHT22;10677;50.942;4.028;2024-03-17T13:51:56;16.50;99.80
21037;DHT22;10677;50.942;4.028;2024-03-17T13:54:22;16.30;99.90
21037;DHT22;10677;50.942;4.028;2024-03-17T13:56:48;16.30;99.90
21037;DHT22;10677;50.942;4.028;2024-03-17T13:59:15;16.30;99.90
21037;DHT22;10677;50.942;4.028;2024-03-17T14:01:45;16.20;99.90
21037;DHT22;10677;50.942;4.028;2024-03-17T14:04:15;16.20;99.90
21037;DHT22;10677;50.942;4.028;2024-03-17T14:06:45;16.10;99.90
21037;DHT22;10677;50.942;4.028;2024-03-17T14:09:12;15.90;99.90
21037;DHT22;10677;50.942;4.028;2024-03-17T14:11:38;15.80;99.90
21037;DHT22;10677;50.942;4.028;2024-03-17T14:14:05;15.80;99.90
21037;DHT22;10677;50.942;4.028;2024-03-17T14:16:31;15.70;99.90
21037;DHT22;10677;50.942;4.028;2024-03-17T14:19:00;15.80;99.90
21037;DHT22;10677;50.942;4.028;2024-03-17T14:21:26;15.80;99.90
21037;DHT22;10677;50.942;4.028;2024-03-17T14:23:52;16.00;99.90
21037;DHT22;10677;50.942;4.028;2024-03-17T14:26:18;16.00;99.90
21037;DHT22;10677;50.942;4.028;2024-03-17T14:28:44;16.20;99.90
21037;DHT22;10677;50.942;4.028;2024-03-17T14:31:10;16.30;99.90
21037;DHT22;10677;50.942;4.028;2024-03-17T14:33:35;16.40;99.90
21037;DHT22;10677;50.942;4.028;2024-03-17T14:36:01;16.40;99.90
21037;DHT22;10677;50.942;4.028;2024-03-17T14:38:26;16.60;99.90
21037;DHT22;10677;50.942;4.028;2024-03-17T14:40:52;16.40;99.90
21037;DHT22;10677;50.942;4.028;2024-03-17T14:43:19;16.40;99.90
21037;DHT22;10677;50.942;4.028;2024-03-17T14:45:45;16.30;99.90
21037;DHT22;10677;50.942;4.028;2024-03-17T14:48:11;16.20;99.90
21037;DHT22;10677;50.942;4.028;2024-03-17T14:50:38;15.90;99.90
21037;DHT22;10677;50.942;4.028;2024-03-17T14:53:04;15.80;99.90
21037;DHT22;10677;50.942;4.028;2024-03-17T14:55:31;15.80;99.90
21037;DHT22;10677;50.942;4.028;2024-03-17T14:57:56;15.70;99.90
21037;DHT22;10677;50.942;4.028;2024-03-17T15:00:22;15.50;99.90
21037;DHT22;10677;50.942;4.028;2024-03-17T15:02:51;15.50;99.90
21037;DHT22;10677;50.942;4.028;2024-03-17T15:05:17;15.60;99.90
21037;DHT22;10677;50.942;4.028;2024-03-17T15:07:44;15.60;99.90
21037;DHT22;10677;50.942;4.028;2024-03-17T15:10:10;15.80;99.90
21037;DHT22;10677;50.942;4.028;2024-03-17T15:12:38;15.70;99.90
21037;DHT22;10677;50.942;4.028;2024-03-17T15:15:06;15.50;99.90
21037;DHT22;10677;50.942;4.028;2024-03-17T15:17:37;15.50;99.90
21037;DHT22;10677;50.942;4.028;2024-03-17T15:20:03;15.50;99.90
21037;DHT22;10677;50.942;4.028;2024-03-17T15:22:48;15.50;99.90
21037;DHT22;10677;50.942;4.028;2024-03-17T15:25:18;15.30;99.90
21037;DHT22;10677;50.942;4.028;2024-03-17T15:27:45;14.90;99.90
21037;DHT22;10677;50.942;4.028;2024-03-17T15:30:14;14.60;99.90
21037;DHT22;10677;50.942;4.028;2024-03-17T15:32:41;14.70;99.90
21037;DHT22;10677;50.942;4.028;2024-03-17T15:35:07;14.80;99.90
21037;DHT22;10677;50.942;4.028;2024-03-17T15:37:33;14.80;99.90
21037;DHT22;10677;50.942;4.028;2024-03-17T15:39:59;14.80;99.90
21037;DHT22;10677;50.942;4.028;2024-03-17T15:42:25;14.80;99.90
21037;DHT22;10677;50.942;4.028;2024-03-17T15:44:50;14.70;99.90
21037;DHT22;10677;50.942;4.028;2024-03-17T15:47:16;14.80;99.90
21037;DHT22;10677;50.942;4.028;2024-03-17T15:49:42;14.80;99.90
21037;DHT22;10677;50.942;4.028;2024-03-17T15:52:08;14.70;99.90
21037;DHT22;10677;50.942;4.028;2024-03-17T15:54:34;14.80;99.90
21037;DHT22;10677;50.942;4.028;2024-03-17T15:57:00;14.90;99.90
21037;DHT22;10677;50.942;4.028;2024-03-17T15:59:26;14.80;99.90
21037;DHT22;10677;50.942;4.028;2024-03-17T16:01:51;14.80;99.90
21037;DHT22;10677;50.942;4.028;2024-03-17T16:04:18;14.80;99.90